Time;durP1;ratioP1;P1;durP2;ratioP2;P2;SDS_P1;SDS_P2;PMS_P1;PMS_P2;Temp;Humidity;BMP_temperature;BMP_pressure;BME280_temperature;BME280_humidity;BME280_pressure;Samples;Min_cycle;Max_cycle;Signal;HPM_P1;HPM_P2
2022/12/12 00:00:24;;;;;;;22.90;8.15;;;;;;;1.88;80.64;98667.50;4789129;29;20047;-83
2022/12/12 00:02:50;;;;;;;24.13;9.15;;;;;;;2.34;81.09;98751.72;4787982;29;20051;-82
2022/12/12 00:05:18;;;;;;;24.75;9.80;;;;;;;2.45;81.50;98762.06;4787699;29;20505;-83
2022/12/12 00:07:44;;;;;;;19.23;8.80;;;;;;;2.19;81.28;98724.22;4788599;29;20050;-81
2022/12/12 00:10:11;;;;;;;24.25;9.63;;;;;;;1.99;81.36;98695.84;4773886;29;20070;-83
2022/12/12 00:12:37;;;;;;;17.30;6.75;;;;;;;1.82;81.06;98667.47;4774562;30;20146;-82
2022/12/12 00:15:04;;;;;;;22.25;9.27;;;;;;;2.02;81.72;98667.59;4774627;30;20070;-82
2022/12/12 00:17:30;;;;;;;23.92;9.75;;;;;;;2.24;81.50;98699.44;4789161;29;20057;-82
2022/12/12 00:19:56;;;;;;;25.35;10.05;;;;;;;1.69;81.42;98610.91;4774589;29;20047;-83
2022/12/12 00:22:22;;;;;;;18.33;8.30;;;;;;;1.67;81.11;98598.94;4788455;29;20482;-83
2022/12/12 00:24:48;;;;;;;23.35;8.68;;;;;;;1.73;80.97;98647.72;4788390;29;20055;-81
2022/12/12 00:27:14;;;;;;;28.50;9.07;;;;;;;2.08;81.23;98686.50;4787628;29;20493;-83
2022/12/12 00:29:40;;;;;;;24.25;9.27;;;;;;;2.35;81.71;98720.91;4787726;29;20043;-83
2022/12/12 00:32:07;;;;;;;15.57;6.95;;;;;;;1.48;81.39;98580.84;4788836;29;20437;-83
2022/12/12 00:34:33;;;;;;;22.08;8.95;;;;;;;0.95;81.40;98493.25;4758180;30;20046;-83
2022/12/12 00:36:59;;;;;;;24.27;8.65;;;;;;;1.70;81.69;98648.53;4789198;29;20188;-83
2022/12/12 00:39:25;;;;;;;16.48;6.97;;;;;;;1.77;81.65;98675.09;4788664;29;20126;-83
2022/12/12 00:41:51;;;;;;;20.05;8.40;;;;;;;2.17;81.16;98721.66;4800157;29;20109;-81
2022/12/12 00:44:17;;;;;;;23.33;9.07;;;;;;;2.11;81.99;98706.19;4796087;29;20585;-83
2022/12/12 00:46:44;;;;;;;20.23;7.82;;;;;;;1.69;81.07;98625.47;4790351;29;20050;-82
2022/12/12 00:49:11;;;;;;;24.20;9.48;;;;;;;2.41;81.92;98743.22;4801089;29;20066;-82
2022/12/12 00:51:38;;;;;;;20.95;8.50;;;;;;;1.84;81.83;98653.78;4797426;29;20047;-84
2022/12/12 00:54:04;;;;;;;23.50;8.80;;;;;;;1.87;82.05;98660.69;4789480;29;20043;-85
2022/12/12 00:56:31;;;;;;;15.55;6.55;;;;;;;1.86;81.58;98658.97;4788059;29;20490;-84
2022/12/12 00:58:57;;;;;;;21.65;8.20;;;;;;;1.41;81.91;98579.06;4789221;29;20054;-83
2022/12/12 01:01:27;;;;;;;29.27;9.63;;;;;;;1.87;81.78;98647.84;4789574;29;20062;-84
2022/12/12 01:03:53;;;;;;;26.17;9.35;;;;;;;1.55;81.89;98612.53;4789542;29;20039;-83
2022/12/12 01:06:21;;;;;;;24.50;9.50;;;;;;;0.97;82.14;98496.69;4790619;29;20049;-82
2022/12/12 01:08:47;;;;;;;28.58;8.27;;;;;;;1.66;82.23;98618.59;4791187;29;20519;-84
2022/12/12 01:11:14;;;;;;;22.23;7.75;;;;;;;1.88;81.60;98657.22;4792149;29;20050;-85
2022/12/12 01:13:42;;;;;;;23.75;8.90;;;;;;;2.42;81.85;98742.38;4789392;29;20051;-85
2022/12/12 01:16:09;;;;;;;18.10;7.30;;;;;;;1.82;82.03;98657.22;4773757;30;20054;-84
2022/12/12 01:18:36;;;;;;;20.52;7.47;;;;;;;2.16;82.24;98698.50;4774537;29;20119;-84
2022/12/12 01:21:03;;;;;;;24.60;8.43;;;;;;;2.44;82.21;98755.22;4774628;29;20043;-84
2022/12/12 01:23:29;;;;;;;25.13;8.50;;;;;;;1.86;82.27;98658.97;4790197;29;20047;-82
2022/12/12 01:26:07;;;;;;;21.65;7.78;;;;;;;2.19;82.46;98740.50;4787414;29;20051;-83
2022/12/12 01:28:34;;;;;;;22.67;8.07;;;;;;;1.58;82.63;98607.44;4771742;29;20043;-83
2022/12/12 01:31:00;;;;;;;22.98;8.18;;;;;;;1.65;82.30;98629.72;4786449;29;20051;-83
2022/12/12 01:33:27;;;;;;;25.15;8.75;;;;;;;1.86;82.27;98656.41;4787321;29;20043;-83
2022/12/12 01:35:53;;;;;;;18.00;7.75;;;;;;;1.59;82.38;98639.91;4772369;30;20091;-84
2022/12/12 01:38:19;;;;;;;28.23;9.68;;;;;;;2.21;82.72;98699.41;4771857;29;20112;-84
2022/12/12 01:40:45;;;;;;;24.00;8.68;;;;;;;1.79;82.63;98701.63;4786777;29;20059;-83
2022/12/12 01:43:16;;;;;;;19.27;7.28;;;;;;;2.20;82.75;98711.41;4789546;29;20573;-84
2022/12/12 01:46:01;;;;;;;12.27;6.15;;;;;;;2.48;82.73;98751.81;4787329;29;20049;-80
2022/12/12 01:48:33;;;;;;;22.73;8.30;;;;;;;2.42;82.75;98747.50;4787228;29;20040;-81
2022/12/12 01:51:03;;;;;;;17.25;6.68;;;;;;;1.53;83.07;98599.69;4771023;29;20514;-83
2022/12/12 01:53:32;;;;;;;18.70;6.47;;;;;;;1.66;82.08;98636.53;4772007;29;20039;-82
2022/12/12 01:56:01;;;;;;;23.10;7.70;;;;;;;1.80;82.60;98654.63;4798652;29;20043;-83
2022/12/12 01:58:29;;;;;;;20.35;7.72;;;;;;;2.41;82.83;98758.63;4776151;30;20058;-81
2022/12/12 02:00:56;;;;;;;17.35;6.28;;;;;;;2.04;83.03;98705.28;4756403;29;20051;-83
2022/12/12 02:03:22;;;;;;;17.92;6.93;;;;;;;2.07;82.62;98695.06;4771108;29;20477;-83
2022/12/12 02:05:55;;;;;;;24.88;9.10;;;;;;;2.31;82.66;98734.59;4785914;29;20066;-84
2022/12/12 02:08:22;;;;;;;18.05;6.75;;;;;;;2.37;82.84;98770.56;4771460;30;20074;-82
2022/12/12 02:10:50;;;;;;;16.30;7.57;;;;;;;2.01;82.94;98712.09;4786541;29;20039;-82
2022/12/12 02:13:21;;;;;;;13.30;6.65;;;;;;;2.00;82.66;98688.13;4757645;30;20112;-81
2022/12/12 02:16:19;;;;;;;12.13;5.05;;;;;;;2.37;82.78;98752.59;4786756;29;20051;-83
2022/12/12 02:19:07;;;;;;;17.55;7.10;;;;;;;2.31;83.04;98738.84;4767456;30;20087;-83
2022/12/12 02:21:59;;;;;;;14.95;6.18;;;;;;;1.91;82.91;98677.78;4785714;29;20100;-81
2022/12/12 02:24:25;;;;;;;18.10;6.60;;;;;;;2.46;83.38;98756.09;4785822;29;20153;-82
2022/12/12 02:26:54;;;;;;;14.98;6.28;;;;;;;2.44;82.97;98762.91;4755805;29;20143;-82
2022/12/12 02:29:58;;;;;;;16.05;6.63;;;;;;;2.42;82.86;98762.91;4770823;29;20051;-83
2022/12/12 02:32:42;;;;;;;16.45;6.50;;;;;;;2.40;82.85;98774.88;4773880;29;20039;-82
2022/12/12 02:35:20;;;;;;;16.90;7.05;;;;;;;2.41;83.25;98776.59;4789058;29;20114;-83
2022/12/12 02:38:00;;;;;;;10.23;5.13;;;;;;;2.16;82.96;98719.94;4789664;29;20141;-83
2022/12/12 02:41:23;;;;;;;14.45;6.38;;;;;;;2.39;82.96;98762.88;4789635;29;20051;-83
2022/12/12 02:44:17;;;;;;;18.73;7.13;;;;;;;2.25;83.12;98748.22;4740491;30;20059;-82
2022/12/12 02:46:49;;;;;;;12.98;6.20;;;;;;;2.01;83.36;98704.38;4770878;30;20055;-81
2022/12/12 02:49:19;;;;;;;12.07;5.70;;;;;;;2.44;83.22;98776.59;4787037;29;20119;-82
2022/12/12 02:51:46;;;;;;;15.32;6.97;;;;;;;0.80;83.26;98496.53;4774263;29;20074;-82
2022/12/12 02:54:16;;;;;;;17.80;6.53;;;;;;;1.69;83.13;98631.44;4789773;29;20047;-84
2022/12/12 02:56:52;;;;;;;14.23;6.35;;;;;;;2.24;83.24;98736.22;4788896;29;20055;-83
2022/12/12 02:59:23;;;;;;;12.25;6.00;;;;;;;2.53;83.24;98752.72;4788897;29;20047;-83
2022/12/12 03:01:55;;;;;;;11.23;4.60;;;;;;;2.50;83.29;98763.81;4789194;29;20047;-82
2022/12/12 03:07:48;;;;;;;18.88;6.90;;;;;;;1.89;82.90;98648.69;4793774;29;19986;-82
2022/12/12 03:10:41;;;;;;;11.80;5.22;;;;;;;2.52;83.35;98787.81;4794561;29;20115;-83
2022/12/12 03:13:26;;;;;;;13.73;5.38;;;;;;;2.49;83.19;98795.47;4802948;29;20054;-82
2022/12/12 03:16:08;;;;;;;13.35;5.68;;;;;;;2.48;83.31;98773.22;4789210;29;20133;-84
2022/12/12 03:18:38;;;;;;;;;;;;;;;2.45;83.27;98762.91;4788852;29;20065;-83
2022/12/12 03:21:29;;;;;;;12.25;4.93;;;;;;;1.47;83.22;98615.88;4773943;29;20047;-84
2022/12/12 03:24:01;;;;;;;15.13;5.43;;;;;;;2.44;83.62;98781.72;4757875;29;20047;-83
2022/12/12 03:26:41;;;;;;;12.15;5.55;;;;;;;1.68;83.27;98680.16;4773567;29;20062;-85
2022/12/12 03:29:15;;;;;;;14.85;5.22;;;;;;;1.23;83.09;98570.38;4775269;29;20091;-84
2022/12/12 03:31:46;;;;;;;15.07;6.38;;;;;;;1.90;83.31;98714.56;4810451;29;20055;-84
2022/12/12 03:34:24;;;;;;;13.30;5.60;;;;;;;2.32;83.26;98772.22;4810771;29;20107;-84
2022/12/12 03:37:02;;;;;;;11.00;4.40;;;;;;;1.41;83.21;98615.84;4780893;30;20023;-84
2022/12/12 03:39:40;;;;;;;11.27;5.47;;;;;;;1.05;83.30;98545.44;4795614;29;20049;-83
2022/12/12 03:42:16;;;;;;;13.93;5.40;;;;;;;2.16;83.76;98709.66;4823928;29;20115;-82
2022/12/12 03:44:52;;;;;;;12.65;5.20;;;;;;;2.47;83.41;98776.63;4795405;29;20089;-86
2022/12/12 03:47:28;;;;;;;13.13;5.70;;;;;;;2.46;83.49;98799.75;4779309;30;20020;-84
2022/12/12 03:50:19;;;;;;;14.70;5.95;;;;;;;1.62;83.77;98640.78;4810903;29;20103;-83
2022/12/12 03:53:09;;;;;;;15.40;5.80;;;;;;;2.35;83.82;98750.88;4810821;29;20059;-83
2022/12/12 03:55:47;;;;;;;12.27;4.82;;;;;;;1.75;83.48;98649.44;4808877;29;20086;-82
2022/12/12 03:58:29;;;;;;;11.15;5.03;;;;;;;2.09;83.56;98702.75;4810971;29;20095;-82
2022/12/12 04:00:57;;;;;;;14.98;5.70;;;;;;;2.52;83.94;98781.81;4810528;29;20058;-84
2022/12/12 04:03:27;;;;;;;14.73;5.25;;;;;;;2.47;83.14;98773.22;4795890;29;20038;-82
2022/12/12 04:15:13;;;;;;;12.48;5.35;;;;;;;2.23;83.57;98728.53;4801430;29;20058;-83
2022/12/12 04:17:56;;;;;;;10.77;5.00;;;;;;;2.04;83.78;98702.72;4778099;29;20063;-82
2022/12/12 04:23:54;;;;;;;14.32;5.72;;;;;;;1.78;83.54;98680.28;4782219;29;20383;-84
2022/12/12 04:26:39;;;;;;;12.52;5.57;;;;;;;2.45;83.61;98749.22;4801388;29;20047;-83
2022/12/12 04:29:14;;;;;;;12.90;5.22;;;;;;;2.45;83.49;98773.19;4782831;29;20134;-82
2022/12/12 04:31:48;;;;;;;12.75;4.68;;;;;;;2.29;83.60;98741.41;4766373;29;20050;-83
2022/12/12 04:34:35;;;;;;;11.63;5.07;;;;;;;2.27;83.92;98737.97;4799636;29;20054;-82
2022/12/12 04:37:06;;;;;;;8.38;4.82;;;;;;;2.26;83.76;98747.38;4805645;29;20051;-84
2022/12/12 04:39:36;;;;;;;11.82;5.68;;;;;;;1.52;83.73;98623.63;4777114;30;20421;-86
2022/12/12 04:42:05;;;;;;;11.45;5.85;;;;;;;1.52;83.94;98627.88;4793468;29;20050;-83
2022/12/12 04:44:34;;;;;;;12.82;5.78;;;;;;;2.28;83.62;98738.81;4773421;30;20430;-85
2022/12/12 04:47:03;;;;;;;9.15;4.75;;;;;;;2.53;83.88;98799.78;4773301;29;20047;-86
2022/12/12 04:49:32;;;;;;;12.95;5.97;;;;;;;2.04;83.75;98696.72;4787746;29;20061;-86
2022/12/12 04:52:04;;;;;;;12.48;5.20;;;;;;;2.36;83.43;98771.41;4788234;29;20151;-86
2022/12/12 04:54:59;;;;;;;10.55;5.68;;;;;;;2.28;83.62;98751.66;4773124;29;20155;-83
2022/12/12 04:57:38;;;;;;;11.27;5.55;;;;;;;2.58;83.51;98768.16;4790624;29;20055;-83
2022/12/12 05:00:09;;;;;;;17.10;5.93;;;;;;;2.56;83.63;98768.13;4789821;29;20054;-85
2022/12/12 05:02:45;;;;;;;14.80;5.80;;;;;;;2.04;83.82;98686.44;4803692;29;20609;-86
2022/12/12 05:05:17;;;;;;;12.88;5.72;;;;;;;2.06;83.36;98672.81;4773829;29;20047;-87
2022/12/12 05:07:50;;;;;;;19.70;6.80;;;;;;;2.62;84.10;98760.47;4795539;29;20604;-85
2022/12/12 05:10:18;;;;;;;8.65;4.45;;;;;;;2.62;83.51;98768.19;4809358;29;20106;-84
2022/12/12 05:12:49;;;;;;;13.27;6.05;;;;;;;2.31;84.03;98718.31;4794079;29;20047;-85
2022/12/12 05:15:18;;;;;;;13.02;5.85;;;;;;;2.32;83.70;98725.16;4792696;29;20628;-82
2022/12/12 05:18:07;;;;;;;10.68;4.28;;;;;;;2.42;83.75;98752.66;4777655;29;20058;-84
2022/12/12 05:20:33;;;;;;;14.95;5.60;;;;;;;1.76;83.58;98634.94;4785341;29;20154;-85
2022/12/12 05:22:59;;;;;;;10.30;5.00;;;;;;;1.65;83.23;98632.28;4789695;29;20051;-83
2022/12/12 05:25:26;;;;;;;11.57;4.65;;;;;;;2.41;83.89;98749.19;4787806;29;20133;-86
2022/12/12 05:27:52;;;;;;;6.97;3.55;;;;;;;2.01;83.61;98695.00;4758155;29;20051;-84
2022/12/12 05:30:18;;;;;;;9.98;4.38;;;;;;;2.52;83.98;98782.66;4789147;29;20043;-84
2022/12/12 05:32:44;;;;;;;10.40;5.13;;;;;;;1.60;83.75;98608.31;4787566;29;20051;-83
2022/12/12 05:35:10;;;;;;;9.82;4.80;;;;;;;2.54;83.56;98769.81;4772822;29;20073;-86
2022/12/12 05:37:37;;;;;;;14.02;5.40;;;;;;;2.41;83.98;98751.78;4789171;29;20055;-83
2022/12/12 05:40:05;;;;;;;9.27;4.60;;;;;;;2.61;83.65;98779.31;4793193;29;20043;-83
2022/12/12 05:42:31;;;;;;;8.15;4.40;;;;;;;2.11;83.38;98689.06;4802710;29;20104;-85
2022/12/12 05:44:58;;;;;;;16.33;5.65;;;;;;;1.55;83.69;98603.09;4793540;29;20115;-84
2022/12/12 05:47:24;;;;;;;7.05;3.38;;;;;;;1.83;84.12;98676.88;4791014;29;20069;-83
2022/12/12 05:49:50;;;;;;;10.73;4.65;;;;;;;1.88;83.42;98658.09;4803084;29;20039;-86
2022/12/12 05:52:16;;;;;;;9.02;4.45;;;;;;;2.50;83.75;98776.66;4786769;29;20047;-84
2022/12/12 05:54:42;;;;;;;12.75;5.85;;;;;;;2.23;83.69;98715.69;4786740;29;20198;-82
2022/12/12 05:57:08;;;;;;;12.55;5.32;;;;;;;2.04;84.07;98683.88;4786668;29;20179;-83
2022/12/12 05:59:34;;;;;;;8.55;4.72;;;;;;;1.91;84.10;98683.81;4789937;29;20074;-81
2022/12/12 06:02:03;;;;;;;10.90;5.53;;;;;;;2.56;83.94;98786.97;4794967;29;20153;-82
2022/12/12 06:04:30;;;;;;;11.07;4.25;;;;;;;2.55;83.90;98813.50;4786707;29;20058;-82
2022/12/12 06:06:59;;;;;;;9.80;4.40;;;;;;;2.52;83.81;98800.66;4792453;29;20051;-81
2022/12/12 06:09:27;;;;;;;15.40;6.32;;;;;;;2.05;83.46;98727.53;4776990;29;20083;-83
2022/12/12 06:11:57;;;;;;;11.25;4.97;;;;;;;1.97;83.59;98703.50;4776589;30;20059;-86
2022/12/12 06:18:11;;;;;;;10.55;4.97;;;;;;;1.19;83.81;98569.50;4799668;29;20051;-84
2022/12/12 06:20:37;;;;;;;9.18;4.40;;;;;;;1.65;83.97;98655.38;4775473;29;20047;-83
2022/12/12 06:23:03;;;;;;;10.10;4.93;;;;;;;2.32;84.08;98754.25;4790252;29;20103;-83
2022/12/12 06:25:30;;;;;;;10.07;4.45;;;;;;;1.68;84.04;98685.31;4791546;29;20058;-85
2022/12/12 06:27:55;;;;;;;9.50;4.47;;;;;;;1.82;83.62;98652.91;4790595;29;20073;-84
2022/12/12 06:30:22;;;;;;;11.48;4.90;;;;;;;0.97;84.04;98542.78;4791792;29;20047;-81
2022/12/12 06:32:48;;;;;;;11.40;4.60;;;;;;;1.87;83.80;98658.97;4797330;29;20047;-83
2022/12/12 06:35:14;;;;;;;10.52;4.57;;;;;;;1.98;83.93;98679.56;4799713;29;20042;-83
2022/12/12 06:37:41;;;;;;;11.57;5.13;;;;;;;1.77;83.54;98663.16;4801494;29;20043;-81
2022/12/12 06:40:08;;;;;;;10.57;4.40;;;;;;;1.90;83.85;98705.16;4810631;29;20060;-80
2022/12/12 06:42:36;;;;;;;8.15;3.92;;;;;;;2.22;84.17;98734.50;4796831;29;20031;-81
2022/12/12 06:45:03;;;;;;;12.63;5.18;;;;;;;1.88;84.26;98690.59;4811079;29;20078;-79
2022/12/12 06:47:30;;;;;;;10.18;4.57;;;;;;;2.13;84.07;98716.47;4794725;30;20031;-81
2022/12/12 06:49:56;;;;;;;10.95;5.10;;;;;;;1.90;83.98;98687.22;4811979;29;20066;-82
2022/12/12 06:52:22;;;;;;;7.97;4.68;;;;;;;1.11;83.15;98555.75;4796362;29;20090;-81
2022/12/12 06:54:52;;;;;;;8.88;4.68;;;;;;;1.94;83.83;98708.59;4782067;29;20138;-80
2022/12/12 06:57:17;;;;;;;12.18;5.13;;;;;;;1.12;84.03;98567.72;4811077;29;20051;-81
2022/12/12 07:00:05;;;;;;;11.98;4.85;;;;;;;0.99;83.78;98565.88;4810033;29;20076;-82
2022/12/12 07:02:40;;;;;;;12.82;5.28;;;;;;;0.81;83.89;98498.25;4805549;29;20090;-84
2022/12/12 07:05:09;;;;;;;12.85;5.90;;;;;;;1.14;83.51;98542.97;4805462;29;20074;-83
2022/12/12 07:07:39;;;;;;;9.63;3.95;;;;;;;2.38;83.89;98754.31;4788290;29;20075;-83
2022/12/12 07:10:17;;;;;;;;;;;;;;;2.63;83.60;98793.03;4779368;30;20050;-85
2022/12/12 07:12:46;;;;;;;11.52;5.15;;;;;;;2.17;83.55;98736.19;4793782;29;20041;-82
2022/12/12 07:15:24;;;;;;;7.93;4.22;;;;;;;2.46;84.23;98807.44;4795378;29;20137;-81
2022/12/12 07:17:52;;;;;;;12.73;6.03;;;;;;;1.89;84.12;98717.97;4795646;29;20142;-84
2022/12/12 07:20:22;;;;;;;13.60;5.40;;;;;;;1.45;84.24;98644.91;4775291;29;20047;-81
2022/12/12 07:22:48;;;;;;;13.18;5.93;;;;;;;1.59;83.80;98635.63;4791085;29;20043;-83
2022/12/12 07:25:14;;;;;;;9.07;5.10;;;;;;;1.96;83.84;98712.06;4790065;29;20043;-83
2022/12/12 07:27:41;;;;;;;10.88;5.28;;;;;;;2.43;83.86;98780.00;4774963;30;20051;-82
2022/12/12 07:30:08;;;;;;;11.43;4.82;;;;;;;2.70;84.07;98817.03;4776105;29;20039;-84
2022/12/12 07:32:34;;;;;;;11.40;5.13;;;;;;;2.61;83.65;98855.50;4791060;29;20081;-84
2022/12/12 07:35:01;;;;;;;12.75;5.25;;;;;;;2.58;83.66;98835.78;4790592;29;20047;-84
2022/12/12 07:37:29;;;;;;;11.98;6.07;;;;;;;2.55;84.03;98831.50;4788442;29;20051;-85
2022/12/12 07:39:55;;;;;;;11.40;5.15;;;;;;;2.53;83.73;98814.38;4789117;29;20054;-81
2022/12/12 07:42:21;;;;;;;12.73;5.70;;;;;;;1.94;83.56;98767.63;4790799;29;20495;-82
2022/12/12 07:44:51;;;;;;;14.10;6.93;;;;;;;1.28;83.99;98593.47;4790958;29;20055;-81
2022/12/12 07:47:17;;;;;;;20.08;7.15;;;;;;;2.18;84.47;98758.44;4775306;29;20043;-83
2022/12/12 07:49:44;;;;;;;20.23;7.28;;;;;;;1.74;83.81;98686.22;4772804;29;20043;-84
2022/12/12 07:52:30;;;;;;;16.38;6.95;;;;;;;1.44;83.76;98641.47;4787275;29;20058;-82
2022/12/12 07:55:01;;;;;;;12.88;6.07;;;;;;;1.71;83.71;98701.56;4790222;29;20043;-84
2022/12/12 07:57:32;;;;;;;19.95;7.78;;;;;;;1.57;83.92;98647.56;4798445;29;20063;-82
2022/12/12 07:59:58;;;;;;;17.20;6.32;;;;;;;1.13;84.22;98586.50;4758917;30;20051;-83
2022/12/12 08:02:25;;;;;;;14.90;6.57;;;;;;;2.66;84.00;98813.59;4773380;30;20050;-80
2022/12/12 08:04:51;;;;;;;17.10;5.82;;;;;;;2.41;83.71;98777.44;4774374;29;20047;-83
2022/12/12 08:07:23;;;;;;;15.45;7.00;;;;;;;2.50;83.76;98776.66;4775655;29;20108;-82
2022/12/12 08:09:50;;;;;;;15.55;7.00;;;;;;;1.83;84.03;98670.03;4765273;29;20067;-79
2022/12/12 08:12:16;;;;;;;14.20;5.70;;;;;;;1.72;83.75;98653.72;4788117;29;20047;-80
2022/12/12 08:14:42;;;;;;;15.18;6.97;;;;;;;1.16;83.51;98569.47;4790521;29;20108;-82
2022/12/12 08:17:09;;;;;;;10.52;5.32;;;;;;;2.52;83.78;98766.41;4774634;30;20051;-79
2022/12/12 08:19:35;;;;;;;14.30;6.05;;;;;;;2.66;84.04;98825.56;4797462;29;20081;-80
2022/12/12 08:22:01;;;;;;;14.45;6.40;;;;;;;2.56;83.77;98773.25;4767954;30;20047;-84
2022/12/12 08:24:28;;;;;;;16.55;6.88;;;;;;;2.39;83.59;98747.47;4800996;29;20063;-82
2022/12/12 08:26:55;;;;;;;19.95;7.57;;;;;;;2.56;84.15;98786.97;4782038;29;20108;-81
2022/12/12 08:29:21;;;;;;;17.25;6.38;;;;;;;2.76;83.82;98822.22;4794786;29;20042;-83
2022/12/12 08:31:48;;;;;;;14.70;6.20;;;;;;;2.46;83.96;98746.66;4787768;29;20501;-84
2022/12/12 08:34:14;;;;;;;11.77;5.20;;;;;;;2.69;83.37;98794.75;4774150;29;20043;-83
2022/12/12 08:36:46;;;;;;;9.93;4.55;;;;;;;2.86;83.87;98815.44;4773347;30;20449;-82
2022/12/12 08:39:16;;;;;;;11.57;5.50;;;;;;;2.75;83.81;98817.09;4774066;29;20043;-84
2022/12/12 08:41:48;;;;;;;12.13;5.03;;;;;;;2.02;83.37;98695.84;4790513;29;20058;-81
2022/12/12 08:44:18;;;;;;;11.35;5.10;;;;;;;1.61;84.15;98644.19;4764058;29;20085;-83
2022/12/12 08:46:47;;;;;;;9.65;4.90;;;;;;;2.53;83.76;98786.13;4774740;29;20546;-82
2022/12/12 08:49:14;;;;;;;9.10;4.38;;;;;;;1.70;83.79;98648.53;4788468;29;20051;-82
2022/12/12 08:51:43;;;;;;;7.28;4.13;;;;;;;2.78;84.12;98843.66;4772793;29;20533;-82
2022/12/12 08:54:11;;;;;;;10.10;5.03;;;;;;;1.83;83.68;98667.47;4786836;29;20083;-83
2022/12/12 08:56:40;;;;;;;10.50;4.80;;;;;;;1.31;83.78;98601.19;4772536;29;20047;-86
2022/12/12 08:59:07;;;;;;;10.55;4.95;;;;;;;2.24;83.63;98773.91;4790242;29;20051;-84
2022/12/12 09:01:33;;;;;;;14.07;6.10;;;;;;;1.69;83.60;98656.25;4787622;29;20153;-83
2022/12/12 09:04:00;;;;;;;10.07;5.18;;;;;;;1.89;83.66;98694.88;4796015;29;20051;-83
2022/12/12 09:06:27;;;;;;;10.70;4.85;;;;;;;2.34;83.77;98783.38;4783415;30;20047;-82
2022/12/12 09:08:55;;;;;;;12.63;5.78;;;;;;;2.47;83.61;98796.31;4789351;29;20414;-81
2022/12/12 09:11:22;;;;;;;8.90;5.07;;;;;;;2.62;83.52;98834.13;4786814;29;20047;-80
2022/12/12 09:13:51;;;;;;;9.77;5.10;;;;;;;2.68;83.98;98845.28;4787116;29;20474;-83
2022/12/12 09:16:19;;;;;;;14.35;5.80;;;;;;;2.15;83.57;98768.66;4786263;29;20073;-81
2022/12/12 09:18:45;;;;;;;13.48;6.22;;;;;;;2.67;83.82;98815.31;4771427;30;20069;-81
2022/12/12 09:21:11;;;;;;;9.93;4.80;;;;;;;2.61;83.73;98811.84;4756393;29;20065;-83
2022/12/12 09:23:37;;;;;;;15.13;6.68;;;;;;;2.79;83.38;98839.38;4771585;29;20050;-84
2022/12/12 09:26:07;;;;;;;15.57;7.25;;;;;;;2.77;83.82;98831.66;4793794;29;20039;-80
2022/12/12 09:28:36;;;;;;;12.23;6.82;;;;;;;1.94;83.40;98682.94;4796981;29;20035;-82
2022/12/12 09:31:14;;;;;;;9.85;4.82;;;;;;;1.27;83.29;98602.00;4800878;29;20081;-83
2022/12/12 09:33:50;;;;;;;16.40;6.72;;;;;;;1.77;83.58;98688.81;4786503;29;20053;-82
2022/12/12 09:36:30;;;;;;;10.63;5.85;;;;;;;1.57;83.16;98657.00;4786880;29;20047;-83
2022/12/12 09:39:07;;;;;;;11.35;6.47;;;;;;;1.43;83.00;98605.59;4772619;29;20058;-84
2022/12/12 09:42:03;;;;;;;14.60;7.37;;;;;;;2.23;83.60;98742.22;4776933;29;20110;-84
2022/12/12 09:44:38;;;;;;;16.23;8.05;;;;;;;1.46;83.36;98614.16;4774984;29;20312;-85
2022/12/12 09:47:36;;;;;;;16.27;7.60;;;;;;;1.36;83.06;98596.97;4774146;29;20566;-83
2022/12/12 09:50:53;;;;;;;14.27;7.28;;;;;;;2.75;83.80;98812.78;4791089;29;20063;-84
2022/12/12 09:54:05;;;;;;;15.70;7.75;;;;;;;1.77;83.02;98644.31;4776998;29;20055;-83
2022/12/12 09:57:12;;;;;;;15.02;7.38;;;;;;;2.46;83.27;98768.94;4758625;30;20207;-83
2022/12/12 10:00:17;;;;;;;16.10;8.52;;;;;;;2.99;83.32;98837.78;4788486;30;20051;-84
2022/12/12 10:03:27;;;;;;;17.75;7.53;;;;;;;2.94;83.67;98831.78;4720179;30;20535;-81
2022/12/12 10:06:44;;;;;;;16.35;8.18;;;;;;;2.43;83.60;98743.22;4748958;30;20100;-84
2022/12/12 10:09:41;;;;;;;16.95;8.00;;;;;;;2.97;83.22;98833.50;4763683;30;20051;-84
2022/12/12 10:12:16;;;;;;;13.43;6.72;;;;;;;2.79;82.87;98829.09;4758504;30;20078;-81
2022/12/12 10:15:28;;;;;;;19.75;8.82;;;;;;;2.85;83.61;98830.00;4723743;30;20150;-84
2022/12/12 10:18:10;;;;;;;14.27;8.05;;;;;;;1.75;83.48;98641.75;4753394;30;20069;-81
2022/12/12 10:21:39;;;;;;;16.77;9.52;;;;;;;2.47;83.63;98757.81;4744357;30;20067;-83
2022/12/12 10:24:23;;;;;;;17.58;8.77;;;;;;;2.86;82.99;98833.44;4754767;30;20463;-81
2022/12/12 10:26:51;;;;;;;17.52;8.75;;;;;;;2.56;83.28;98779.28;4756508;30;20059;-81
2022/12/12 10:29:32;;;;;;;15.90;8.20;;;;;;;1.43;83.11;98579.94;4773116;30;20048;-83
2022/12/12 10:35:58;;;;;;;17.00;8.50;;;;;;;2.80;83.38;98820.53;4741390;30;20052;-80
2022/12/12 10:38:36;;;;;;;18.67;9.27;;;;;;;2.91;83.37;98829.19;4773308;30;20059;-83
2022/12/12 10:41:26;;;;;;;14.68;7.60;;;;;;;2.79;83.58;98805.97;4795753;29;20043;-82
2022/12/12 10:44:40;;;;;;;19.92;9.43;;;;;;;2.92;83.48;98836.03;4797809;29;20572;-81
2022/12/12 10:47:09;;;;;;;20.85;9.25;;;;;;;2.86;83.28;98836.88;4759557;30;20052;-83
2022/12/12 10:49:36;;;;;;;20.20;9.20;;;;;;;2.69;83.32;98793.06;4791431;29;20142;-82
2022/12/12 10:52:10;;;;;;;11.90;6.53;;;;;;;2.63;82.49;98803.28;4791423;29;20047;-81
2022/12/12 10:54:47;;;;;;;19.58;9.75;;;;;;;2.78;83.43;98791.38;4774611;30;20060;-82
2022/12/12 10:57:51;;;;;;;14.65;8.77;;;;;;;1.45;82.68;98615.00;4790184;29;20079;-80
2022/12/12 11:00:50;;;;;;;14.30;8.43;;;;;;;2.58;83.18;98769.00;4774183;29;20577;-82
2022/12/12 11:03:38;;;;;;;17.48;8.57;;;;;;;2.85;83.38;98826.56;4774551;30;20055;-83
2022/12/12 11:06:36;;;;;;;17.67;9.68;;;;;;;2.83;83.08;98852.25;4790261;29;20055;-84
2022/12/12 11:09:24;;;;;;;18.40;7.72;;;;;;;1.29;82.75;98623.41;4759102;29;20051;-83
2022/12/12 11:12:10;;;;;;;17.45;8.57;;;;;;;2.74;82.96;98823.91;4776206;29;20142;-82
2022/12/12 11:14:44;;;;;;;18.15;9.52;;;;;;;2.80;83.36;98818.84;4776487;30;20522;-81
2022/12/12 11:17:28;;;;;;;18.80;8.77;;;;;;;2.66;83.16;98805.00;4775830;30;20062;-81
2022/12/12 11:19:58;;;;;;;19.80;9.05;;;;;;;2.88;82.61;98812.88;4790217;29;20062;-83
2022/12/12 11:22:25;;;;;;;18.02;8.52;;;;;;;2.71;82.80;98781.09;4774261;29;20430;-83
2022/12/12 11:24:52;;;;;;;15.45;7.32;;;;;;;2.75;82.43;98807.66;4775837;30;20047;-82
2022/12/12 11:27:27;;;;;;;13.25;7.13;;;;;;;2.79;82.72;98806.84;4789678;29;20205;-80
2022/12/12 11:29:59;;;;;;;15.38;7.72;;;;;;;2.30;83.10;98712.34;4788593;29;20129;-81
2022/12/12 11:32:36;;;;;;;14.07;7.40;;;;;;;2.50;82.81;98739.84;4788746;29;20047;-80
2022/12/12 11:35:25;;;;;;;13.57;7.22;;;;;;;2.85;82.53;98829.13;4789547;29;20081;-83
2022/12/12 11:38:52;;;;;;;13.75;5.85;;;;;;;2.79;82.46;98821.38;4775603;29;20058;-83
2022/12/12 11:42:31;;;;;;;;;;;;;;;;;;;;;
2022/12/12 11:46:17;;;;;;;14.48;6.57;;;;;;;1.20;82.67;98540.47;4773227;29;20080;-81
2022/12/12 11:49:04;;;;;;;16.27;7.35;;;;;;;2.00;82.69;98718.94;4777985;29;20054;-81
2022/12/12 11:51:43;;;;;;;14.25;6.68;;;;;;;2.64;82.88;98802.44;4764002;30;20047;-82
2022/12/12 11:54:28;;;;;;;18.00;8.50;;;;;;;2.16;83.12;98717.34;4803456;29;20131;-84
2022/12/12 11:57:06;;;;;;;12.13;6.63;;;;;;;2.73;82.83;98827.34;4788127;29;20223;-83
2022/12/12 12:00:00;;;;;;;16.35;8.55;;;;;;;2.20;82.94;98752.47;4777305;29;20051;-80
2022/12/12 12:02:55;;;;;;;16.38;6.93;;;;;;;2.67;82.74;98812.75;4789314;29;20047;-82
2022/12/12 12:05:31;;;;;;;11.02;7.25;;;;;;;2.59;82.96;98805.84;4782531;29;20705;-80
2022/12/12 12:08:21;;;;;;;12.93;6.78;;;;;;;2.55;82.80;98810.06;4804016;29;20050;-80
2022/12/12 12:11:15;;;;;;;14.45;6.55;;;;;;;2.50;82.71;98804.91;4789481;29;20080;-81
2022/12/12 12:14:18;;;;;;;15.20;7.20;;;;;;;2.48;83.08;98800.63;4775105;29;20059;-80
2022/12/12 12:16:48;;;;;;;15.93;7.80;;;;;;;2.50;83.26;98784.34;4773547;29;20181;-81
2022/12/12 12:19:35;;;;;;;9.90;5.25;;;;;;;2.54;83.21;98804.09;4789204;29;20494;-83
2022/12/12 12:22:26;;;;;;;13.75;7.40;;;;;;;2.53;82.99;98788.69;4790273;29;20049;-82
2022/12/12 12:25:25;;;;;;;13.85;7.10;;;;;;;2.40;82.85;98785.16;4789363;29;20112;-81
2022/12/12 12:28:05;;;;;;;13.13;6.57;;;;;;;2.36;82.72;98809.09;4791419;29;20078;-81
2022/12/12 12:30:48;;;;;;;11.18;6.20;;;;;;;2.08;82.95;98755.81;4789653;29;20062;-81
2022/12/12 12:33:31;;;;;;;13.35;6.60;;;;;;;2.43;83.03;98799.72;4788990;29;20031;-81
2022/12/12 12:36:13;;;;;;;11.23;5.68;;;;;;;2.39;82.62;98794.53;4790339;29;20037;-83